sensor_id;sensor_type;location;lat;lon;timestamp;P1;durP1;ratioP1;P2;durP2;ratioP2
61696;SDS011;47610;52.252;20.922;2022-11-04T00:01:10;15.40;;;8.00;;
61696;SDS011;47610;52.252;20.922;2022-11-04T00:06:33;19.80;;;9.20;;
61696;SDS011;47610;52.252;20.922;2022-11-04T00:11:57;18.80;;;8.80;;
61696;SDS011;47610;52.252;20.922;2022-11-04T00:17:19;18.20;;;8.40;;
61696;SDS011;47610;52.252;20.922;2022-11-04T00:22:42;15.70;;;8.00;;
61696;SDS011;47610;52.252;20.922;2022-11-04T00:28:08;17.00;;;8.40;;
61696;SDS011;47610;52.252;20.922;2022-11-04T00:33:33;21.30;;;8.80;;
61696;SDS011;47610;52.252;20.922;2022-11-04T00:38:57;21.50;;;8.50;;
61696;SDS011;47610;52.252;20.922;2022-11-04T00:44:19;15.30;;;7.90;;
61696;SDS011;47610;52.252;20.922;2022-11-04T00:49:41;18.80;;;8.70;;
61696;SDS011;47610;52.252;20.922;2022-11-04T00:55:06;21.80;;;9.70;;
61696;SDS011;47610;52.252;20.922;2022-11-04T01:00:28;17.90;;;8.00;;
61696;SDS011;47610;52.252;20.922;2022-11-04T01:05:51;18.20;;;9.00;;
61696;SDS011;47610;52.252;20.922;2022-11-04T01:11:15;21.10;;;9.70;;
61696;SDS011;47610;52.252;20.922;2022-11-04T01:16:38;20.10;;;10.00;;
61696;SDS011;47610;52.252;20.922;2022-11-04T01:22:01;22.70;;;9.40;;
61696;SDS011;47610;52.252;20.922;2022-11-04T01:27:23;18.30;;;8.70;;
61696;SDS011;47610;52.252;20.922;2022-11-04T01:32:45;16.30;;;8.00;;
61696;SDS011;47610;52.252;20.922;2022-11-04T01:38:07;20.40;;;9.20;;
61696;SDS011;47610;52.252;20.922;2022-11-04T01:43:47;17.30;;;9.40;;
61696;SDS011;47610;52.252;20.922;2022-11-04T01:49:16;23.30;;;9.50;;
61696;SDS011;47610;52.252;20.922;2022-11-04T01:54:47;15.70;;;8.00;;
61696;SDS011;47610;52.252;20.922;2022-11-04T02:00:14;17.90;;;9.30;;
61696;SDS011;47610;52.252;20.922;2022-11-04T02:05:38;16.30;;;8.20;;
61696;SDS011;47610;52.252;20.922;2022-11-04T02:11:01;18.10;;;9.10;;
61696;SDS011;47610;52.252;20.922;2022-11-04T02:16:26;18.40;;;8.30;;
61696;SDS011;47610;52.252;20.922;2022-11-04T02:22:01;19.80;;;8.60;;
61696;SDS011;47610;52.252;20.922;2022-11-04T02:27:50;19.20;;;8.30;;
61696;SDS011;47610;52.252;20.922;2022-11-04T02:33:35;15.60;;;8.20;;
61696;SDS011;47610;52.252;20.922;2022-11-04T02:39:06;16.20;;;7.40;;
61696;SDS011;47610;52.252;20.922;2022-11-04T02:44:42;16.30;;;7.00;;
61696;SDS011;47610;52.252;20.922;2022-11-04T02:50:13;15.60;;;7.50;;
61696;SDS011;47610;52.252;20.922;2022-11-04T02:55:42;17.00;;;7.50;;
61696;SDS011;47610;52.252;20.922;2022-11-04T03:01:10;17.00;;;7.40;;
61696;SDS011;47610;52.252;20.922;2022-11-04T03:06:36;16.30;;;7.30;;
61696;SDS011;47610;52.252;20.922;2022-11-04T03:12:02;17.80;;;8.20;;
61696;SDS011;47610;52.252;20.922;2022-11-04T03:17:33;18.40;;;7.10;;
61696;SDS011;47610;52.252;20.922;2022-11-04T03:23:01;16.30;;;7.00;;
61696;SDS011;47610;52.252;20.922;2022-11-04T03:28:29;19.00;;;8.40;;
61696;SDS011;47610;52.252;20.922;2022-11-04T03:33:59;13.90;;;7.40;;
61696;SDS011;47610;52.252;20.922;2022-11-04T03:39:21;17.10;;;7.70;;
61696;SDS011;47610;52.252;20.922;2022-11-04T03:44:44;15.70;;;7.60;;
61696;SDS011;47610;52.252;20.922;2022-11-04T03:50:12;14.80;;;7.50;;
61696;SDS011;47610;52.252;20.922;2022-11-04T03:55:47;16.30;;;7.20;;
61696;SDS011;47610;52.252;20.922;2022-11-04T04:01:23;16.00;;;7.70;;
61696;SDS011;47610;52.252;20.922;2022-11-04T04:06:53;11.90;;;6.50;;
61696;SDS011;47610;52.252;20.922;2022-11-04T04:12:24;14.40;;;7.10;;
61696;SDS011;47610;52.252;20.922;2022-11-04T04:17:55;19.00;;;7.40;;
61696;SDS011;47610;52.252;20.922;2022-11-04T04:23:23;19.00;;;7.70;;
61696;SDS011;47610;52.252;20.922;2022-11-04T04:28:52;12.30;;;6.50;;
61696;SDS011;47610;52.252;20.922;2022-11-04T04:34:17;16.50;;;6.90;;
61696;SDS011;47610;52.252;20.922;2022-11-04T04:39:42;14.60;;;7.10;;
61696;SDS011;47610;52.252;20.922;2022-11-04T04:45:11;15.30;;;6.80;;
61696;SDS011;47610;52.252;20.922;2022-11-04T04:50:45;11.30;;;6.80;;
61696;SDS011;47610;52.252;20.922;2022-11-04T04:56:12;23.30;;;7.30;;
61696;SDS011;47610;52.252;20.922;2022-11-04T05:01:35;15.00;;;7.20;;
61696;SDS011;47610;52.252;20.922;2022-11-04T05:06:58;18.80;;;6.90;;
61696;SDS011;47610;52.252;20.922;2022-11-04T05:12:21;14.40;;;7.70;;
61696;SDS011;47610;52.252;20.922;2022-11-04T05:17:43;12.90;;;6.70;;
61696;SDS011;47610;52.252;20.922;2022-11-04T05:23:05;12.30;;;6.80;;
61696;SDS011;47610;52.252;20.922;2022-11-04T05:28:28;13.60;;;6.70;;
61696;SDS011;47610;52.252;20.922;2022-11-04T05:33:52;14.00;;;6.20;;
61696;SDS011;47610;52.252;20.922;2022-11-04T05:39:14;10.70;;;6.20;;
61696;SDS011;47610;52.252;20.922;2022-11-04T05:44:36;12.60;;;6.30;;
61696;SDS011;47610;52.252;20.922;2022-11-04T05:50:00;12.10;;;6.10;;
61696;SDS011;47610;52.252;20.922;2022-11-04T05:55:24;18.30;;;7.30;;
61696;SDS011;47610;52.252;20.922;2022-11-04T06:00:47;16.90;;;6.70;;
61696;SDS011;47610;52.252;20.922;2022-11-04T06:06:10;14.20;;;6.50;;
61696;SDS011;47610;52.252;20.922;2022-11-04T06:11:33;11.80;;;6.20;;
61696;SDS011;47610;52.252;20.922;2022-11-04T06:16:56;12.90;;;6.40;;
61696;SDS011;47610;52.252;20.922;2022-11-04T06:22:18;17.00;;;6.10;;
61696;SDS011;47610;52.252;20.922;2022-11-04T06:27:41;12.80;;;5.50;;
61696;SDS011;47610;52.252;20.922;2022-11-04T06:33:04;16.00;;;6.40;;
61696;SDS011;47610;52.252;20.922;2022-11-04T06:38:28;15.00;;;6.70;;
61696;SDS011;47610;52.252;20.922;2022-11-04T06:43:52;12.20;;;7.10;;
61696;SDS011;47610;52.252;20.922;2022-11-04T06:49:15;15.20;;;6.30;;
61696;SDS011;47610;52.252;20.922;2022-11-04T06:54:40;11.60;;;5.50;;
61696;SDS011;47610;52.252;20.922;2022-11-04T07:00:04;13.20;;;6.70;;
61696;SDS011;47610;52.252;20.922;2022-11-04T07:05:33;19.30;;;7.50;;
61696;SDS011;47610;52.252;20.922;2022-11-04T07:10:56;12.80;;;6.30;;
61696;SDS011;47610;52.252;20.922;2022-11-04T07:16:18;13.40;;;5.90;;
61696;SDS011;47610;52.252;20.922;2022-11-04T07:21:43;14.20;;;6.60;;
61696;SDS011;47610;52.252;20.922;2022-11-04T07:27:06;18.10;;;7.20;;
61696;SDS011;47610;52.252;20.922;2022-11-04T07:32:29;10.70;;;6.30;;
61696;SDS011;47610;52.252;20.922;2022-11-04T07:37:53;14.40;;;7.20;;
61696;SDS011;47610;52.252;20.922;2022-11-04T07:43:17;11.80;;;6.30;;
61696;SDS011;47610;52.252;20.922;2022-11-04T07:48:40;15.80;;;6.60;;
61696;SDS011;47610;52.252;20.922;2022-11-04T07:54:04;17.40;;;7.60;;
61696;SDS011;47610;52.252;20.922;2022-11-04T07:59:27;13.00;;;7.30;;
61696;SDS011;47610;52.252;20.922;2022-11-04T08:04:49;17.00;;;7.60;;
61696;SDS011;47610;52.252;20.922;2022-11-04T08:10:15;14.80;;;6.70;;
61696;SDS011;47610;52.252;20.922;2022-11-04T08:15:40;15.00;;;7.10;;
61696;SDS011;47610;52.252;20.922;2022-11-04T08:21:03;13.20;;;6.40;;
61696;SDS011;47610;52.252;20.922;2022-11-04T08:26:27;15.00;;;7.40;;
61696;SDS011;47610;52.252;20.922;2022-11-04T08:31:53;14.70;;;7.30;;
61696;SDS011;47610;52.252;20.922;2022-11-04T08:37:15;12.80;;;6.80;;
61696;SDS011;47610;52.252;20.922;2022-11-04T08:42:38;13.20;;;6.80;;
61696;SDS011;47610;52.252;20.922;2022-11-04T08:48:01;16.30;;;7.90;;
61696;SDS011;47610;52.252;20.922;2022-11-04T08:53:23;18.30;;;9.20;;
61696;SDS011;47610;52.252;20.922;2022-11-04T08:58:47;14.70;;;7.30;;
61696;SDS011;47610;52.252;20.922;2022-11-04T09:04:12;16.20;;;7.50;;
61696;SDS011;47610;52.252;20.922;2022-11-04T09:09:35;14.60;;;8.10;;
61696;SDS011;47610;52.252;20.922;2022-11-04T09:15:01;16.80;;;7.10;;
61696;SDS011;47610;52.252;20.922;2022-11-04T09:20:24;11.80;;;6.80;;
61696;SDS011;47610;52.252;20.922;2022-11-04T09:25:46;20.70;;;7.60;;
61696;SDS011;47610;52.252;20.922;2022-11-04T09:31:10;15.70;;;8.20;;
61696;SDS011;47610;52.252;20.922;2022-11-04T09:36:36;17.80;;;8.70;;
61696;SDS011;47610;52.252;20.922;2022-11-04T09:47:51;14.40;;;6.90;;
61696;SDS011;47610;52.252;20.922;2022-11-04T09:53:19;14.10;;;7.20;;
61696;SDS011;47610;52.252;20.922;2022-11-04T09:58:47;14.40;;;8.20;;
61696;SDS011;47610;52.252;20.922;2022-11-04T10:04:17;14.90;;;7.60;;
61696;SDS011;47610;52.252;20.922;2022-11-04T10:09:53;20.00;;;11.10;;
61696;SDS011;47610;52.252;20.922;2022-11-04T10:21:30;15.90;;;7.80;;
61696;SDS011;47610;52.252;20.922;2022-11-04T10:27:03;16.70;;;7.80;;
61696;SDS011;47610;52.252;20.922;2022-11-04T10:32:34;18.10;;;8.00;;
61696;SDS011;47610;52.252;20.922;2022-11-04T10:38:06;13.00;;;7.10;;
61696;SDS011;47610;52.252;20.922;2022-11-04T10:43:42;12.90;;;7.80;;
61696;SDS011;47610;52.252;20.922;2022-11-04T10:49:10;16.30;;;9.10;;
61696;SDS011;47610;52.252;20.922;2022-11-04T10:54:49;16.80;;;7.30;;
61696;SDS011;47610;52.252;20.922;2022-11-04T11:00:13;14.00;;;7.00;;
61696;SDS011;47610;52.252;20.922;2022-11-04T11:06:12;17.60;;;7.40;;
61696;SDS011;47610;52.252;20.922;2022-11-04T11:11:45;16.30;;;7.00;;
61696;SDS011;47610;52.252;20.922;2022-11-04T11:17:20;14.20;;;7.00;;
61696;SDS011;47610;52.252;20.922;2022-11-04T11:22:46;13.90;;;7.30;;
61696;SDS011;47610;52.252;20.922;2022-11-04T11:28:12;14.00;;;7.00;;
61696;SDS011;47610;52.252;20.922;2022-11-04T11:33:48;16.00;;;6.80;;
61696;SDS011;47610;52.252;20.922;2022-11-04T11:39:15;12.80;;;7.20;;
61696;SDS011;47610;52.252;20.922;2022-11-04T11:44:40;16.10;;;7.90;;
61696;SDS011;47610;52.252;20.922;2022-11-04T11:50:13;13.30;;;7.00;;
61696;SDS011;47610;52.252;20.922;2022-11-04T11:55:43;11.50;;;6.40;;
61696;SDS011;47610;52.252;20.922;2022-11-04T12:01:14;11.50;;;6.70;;
61696;SDS011;47610;52.252;20.922;2022-11-04T12:06:42;13.20;;;6.50;;
61696;SDS011;47610;52.252;20.922;2022-11-04T12:12:17;12.50;;;7.80;;
61696;SDS011;47610;52.252;20.922;2022-11-04T12:17:55;12.40;;;6.30;;
61696;SDS011;47610;52.252;20.922;2022-11-04T12:23:34;12.90;;;7.20;;
61696;SDS011;47610;52.252;20.922;2022-11-04T12:34:59;14.10;;;7.50;;
61696;SDS011;47610;52.252;20.922;2022-11-04T12:40:37;10.70;;;6.50;;
61696;SDS011;47610;52.252;20.922;2022-11-04T12:46:13;12.80;;;7.20;;
61696;SDS011;47610;52.252;20.922;2022-11-04T12:51:46;14.20;;;6.80;;
61696;SDS011;47610;52.252;20.922;2022-11-04T12:57:20;10.30;;;5.90;;
61696;SDS011;47610;52.252;20.922;2022-11-04T13:02:51;15.20;;;6.90;;
61696;SDS011;47610;52.252;20.922;2022-11-04T13:08:21;11.30;;;6.40;;
61696;SDS011;47610;52.252;20.922;2022-11-04T13:13:55;12.30;;;6.50;;
61696;SDS011;47610;52.252;20.922;2022-11-04T13:19:24;18.70;;;10.40;;
61696;SDS011;47610;52.252;20.922;2022-11-04T13:24:50;15.00;;;6.90;;
61696;SDS011;47610;52.252;20.922;2022-11-04T13:30:19;15.80;;;6.40;;
61696;SDS011;47610;52.252;20.922;2022-11-04T13:35:48;10.40;;;6.10;;
61696;SDS011;47610;52.252;20.922;2022-11-04T13:41:46;19.50;;;7.60;;
61696;SDS011;47610;52.252;20.922;2022-11-04T13:47:24;15.60;;;7.10;;
61696;SDS011;47610;52.252;20.922;2022-11-04T13:52:52;13.40;;;6.20;;
61696;SDS011;47610;52.252;20.922;2022-11-04T13:58:19;11.20;;;6.10;;
61696;SDS011;47610;52.252;20.922;2022-11-04T14:03:51;15.00;;;6.90;;
61696;SDS011;47610;52.252;20.922;2022-11-04T14:15:03;20.20;;;12.40;;
61696;SDS011;47610;52.252;20.922;2022-11-04T14:20:35;14.30;;;6.50;;
61696;SDS011;47610;52.252;20.922;2022-11-04T14:26:17;14.40;;;6.40;;
61696;SDS011;47610;52.252;20.922;2022-11-04T14:31:42;13.10;;;6.40;;
61696;SDS011;47610;52.252;20.922;2022-11-04T14:37:14;13.10;;;6.40;;
61696;SDS011;47610;52.252;20.922;2022-11-04T14:42:47;11.80;;;6.50;;
61696;SDS011;47610;52.252;20.922;2022-11-04T14:48:13;13.50;;;6.70;;
61696;SDS011;47610;52.252;20.922;2022-11-04T14:53:37;11.60;;;6.30;;
61696;SDS011;47610;52.252;20.922;2022-11-04T14:59:00;15.10;;;7.10;;
61696;SDS011;47610;52.252;20.922;2022-11-04T15:04:25;22.30;;;6.50;;
61696;SDS011;47610;52.252;20.922;2022-11-04T15:09:49;11.70;;;6.30;;
61696;SDS011;47610;52.252;20.922;2022-11-04T15:15:28;14.30;;;6.90;;
61696;SDS011;47610;52.252;20.922;2022-11-04T15:20:53;24.80;;;14.40;;
61696;SDS011;47610;52.252;20.922;2022-11-04T15:26:20;18.60;;;8.40;;
61696;SDS011;47610;52.252;20.922;2022-11-04T15:31:51;23.10;;;7.50;;
61696;SDS011;47610;52.252;20.922;2022-11-04T15:37:15;13.00;;;7.00;;
61696;SDS011;47610;52.252;20.922;2022-11-04T15:42:38;9.90;;;5.50;;
61696;SDS011;47610;52.252;20.922;2022-11-04T15:53:47;13.40;;;6.60;;
61696;SDS011;47610;52.252;20.922;2022-11-04T15:59:12;12.40;;;7.50;;
61696;SDS011;47610;52.252;20.922;2022-11-04T16:04:37;14.50;;;7.90;;
61696;SDS011;47610;52.252;20.922;2022-11-04T16:09:59;15.20;;;7.60;;
61696;SDS011;47610;52.252;20.922;2022-11-04T16:15:32;16.10;;;7.90;;
61696;SDS011;47610;52.252;20.922;2022-11-04T16:20:55;16.60;;;7.40;;
61696;SDS011;47610;52.252;20.922;2022-11-04T16:26:24;16.20;;;8.00;;
61696;SDS011;47610;52.252;20.922;2022-11-04T16:37:28;15.20;;;7.20;;
61696;SDS011;47610;52.252;20.922;2022-11-04T16:42:50;18.10;;;9.50;;
61696;SDS011;47610;52.252;20.922;2022-11-04T16:48:13;15.80;;;7.70;;
61696;SDS011;47610;52.252;20.922;2022-11-04T16:53:37;16.40;;;7.50;;
61696;SDS011;47610;52.252;20.922;2022-11-04T16:58:58;13.30;;;7.60;;
61696;SDS011;47610;52.252;20.922;2022-11-04T17:04:20;17.20;;;8.60;;
61696;SDS011;47610;52.252;20.922;2022-11-04T17:09:42;16.10;;;8.20;;
61696;SDS011;47610;52.252;20.922;2022-11-04T17:15:05;17.80;;;8.60;;
61696;SDS011;47610;52.252;20.922;2022-11-04T17:20:27;13.50;;;7.80;;
61696;SDS011;47610;52.252;20.922;2022-11-04T17:25:49;14.00;;;8.10;;
61696;SDS011;47610;52.252;20.922;2022-11-04T17:31:12;16.10;;;8.60;;
61696;SDS011;47610;52.252;20.922;2022-11-04T17:36:38;18.30;;;9.30;;
61696;SDS011;47610;52.252;20.922;2022-11-04T17:41:59;15.40;;;9.40;;
61696;SDS011;47610;52.252;20.922;2022-11-04T17:47:21;15.90;;;9.20;;
61696;SDS011;47610;52.252;20.922;2022-11-04T17:52:43;16.80;;;9.50;;
61696;SDS011;47610;52.252;20.922;2022-11-04T17:58:05;21.70;;;10.40;;
61696;SDS011;47610;52.252;20.922;2022-11-04T18:03:27;19.00;;;9.90;;
61696;SDS011;47610;52.252;20.922;2022-11-04T18:08:50;16.30;;;9.40;;
61696;SDS011;47610;52.252;20.922;2022-11-04T18:14:13;17.30;;;9.60;;
61696;SDS011;47610;52.252;20.922;2022-11-04T18:19:37;17.40;;;10.60;;
61696;SDS011;47610;52.252;20.922;2022-11-04T18:24:58;19.20;;;9.90;;
61696;SDS011;47610;52.252;20.922;2022-11-04T18:30:20;20.60;;;10.20;;
61696;SDS011;47610;52.252;20.922;2022-11-04T18:35:42;18.90;;;9.80;;
61696;SDS011;47610;52.252;20.922;2022-11-04T18:41:04;21.70;;;9.80;;
61696;SDS011;47610;52.252;20.922;2022-11-04T18:46:26;20.60;;;11.20;;
61696;SDS011;47610;52.252;20.922;2022-11-04T18:51:47;20.10;;;10.10;;
61696;SDS011;47610;52.252;20.922;2022-11-04T18:57:09;21.70;;;11.90;;
61696;SDS011;47610;52.252;20.922;2022-11-04T19:02:32;26.00;;;14.30;;
61696;SDS011;47610;52.252;20.922;2022-11-04T19:07:55;20.90;;;10.30;;
61696;SDS011;47610;52.252;20.922;2022-11-04T19:13:17;22.90;;;11.50;;
61696;SDS011;47610;52.252;20.922;2022-11-04T19:18:40;18.40;;;10.10;;
61696;SDS011;47610;52.252;20.922;2022-11-04T19:24:06;15.60;;;8.80;;
61696;SDS011;47610;52.252;20.922;2022-11-04T19:29:28;25.90;;;10.00;;
61696;SDS011;47610;52.252;20.922;2022-11-04T19:34:51;23.00;;;10.50;;
61696;SDS011;47610;52.252;20.922;2022-11-04T19:40:14;22.50;;;10.40;;
61696;SDS011;47610;52.252;20.922;2022-11-04T19:45:40;21.50;;;10.70;;
61696;SDS011;47610;52.252;20.922;2022-11-04T19:51:04;19.80;;;10.10;;
61696;SDS011;47610;52.252;20.922;2022-11-04T19:56:33;19.30;;;10.00;;
61696;SDS011;47610;52.252;20.922;2022-11-04T20:01:58;21.00;;;9.00;;
61696;SDS011;47610;52.252;20.922;2022-11-04T20:07:21;15.40;;;9.80;;
61696;SDS011;47610;52.252;20.922;2022-11-04T20:12:45;21.70;;;10.90;;
61696;SDS011;47610;52.252;20.922;2022-11-04T20:18:08;17.10;;;10.00;;
61696;SDS011;47610;52.252;20.922;2022-11-04T20:23:30;17.60;;;10.20;;
61696;SDS011;47610;52.252;20.922;2022-11-04T20:28:54;22.10;;;10.90;;
61696;SDS011;47610;52.252;20.922;2022-11-04T20:34:18;18.10;;;10.50;;
61696;SDS011;47610;52.252;20.922;2022-11-04T20:39:40;17.90;;;10.20;;
61696;SDS011;47610;52.252;20.922;2022-11-04T20:45:03;18.40;;;9.30;;
61696;SDS011;47610;52.252;20.922;2022-11-04T20:50:29;18.50;;;10.10;;
61696;SDS011;47610;52.252;20.922;2022-11-04T20:55:52;17.70;;;9.70;;
61696;SDS011;47610;52.252;20.922;2022-11-04T21:01:14;13.90;;;8.90;;
61696;SDS011;47610;52.252;20.922;2022-11-04T21:06:38;20.90;;;10.10;;
61696;SDS011;47610;52.252;20.922;2022-11-04T21:12:01;16.50;;;9.30;;
61696;SDS011;47610;52.252;20.922;2022-11-04T21:17:24;16.90;;;8.40;;
61696;SDS011;47610;52.252;20.922;2022-11-04T21:22:48;18.80;;;10.00;;
61696;SDS011;47610;52.252;20.922;2022-11-04T21:28:10;18.40;;;8.70;;
61696;SDS011;47610;52.252;20.922;2022-11-04T21:33:33;19.60;;;9.40;;
61696;SDS011;47610;52.252;20.922;2022-11-04T21:38:55;14.90;;;8.50;;
61696;SDS011;47610;52.252;20.922;2022-11-04T21:44:18;20.20;;;10.50;;
61696;SDS011;47610;52.252;20.922;2022-11-04T21:49:41;23.30;;;9.80;;
61696;SDS011;47610;52.252;20.922;2022-11-04T21:55:04;16.50;;;8.30;;
61696;SDS011;47610;52.252;20.922;2022-11-04T22:00:28;18.40;;;9.60;;
61696;SDS011;47610;52.252;20.922;2022-11-04T22:05:59;14.40;;;8.70;;
61696;SDS011;47610;52.252;20.922;2022-11-04T22:11:23;18.20;;;8.80;;
61696;SDS011;47610;52.252;20.922;2022-11-04T22:22:07;19.90;;;10.10;;
61696;SDS011;47610;52.252;20.922;2022-11-04T22:27:30;22.80;;;10.00;;
61696;SDS011;47610;52.252;20.922;2022-11-04T22:32:53;17.30;;;9.50;;
61696;SDS011;47610;52.252;20.922;2022-11-04T22:38:17;18.20;;;8.80;;
61696;SDS011;47610;52.252;20.922;2022-11-04T22:43:39;16.70;;;9.00;;
61696;SDS011;47610;52.252;20.922;2022-11-04T22:49:01;17.20;;;10.40;;
61696;SDS011;47610;52.252;20.922;2022-11-04T22:54:23;20.90;;;10.30;;
61696;SDS011;47610;52.252;20.922;2022-11-04T22:59:46;17.10;;;9.30;;
61696;SDS011;47610;52.252;20.922;2022-11-04T23:05:08;20.90;;;10.80;;
61696;SDS011;47610;52.252;20.922;2022-11-04T23:10:32;22.80;;;9.50;;
61696;SDS011;47610;52.252;20.922;2022-11-04T23:15:56;20.30;;;10.10;;
61696;SDS011;47610;52.252;20.922;2022-11-04T23:21:21;17.50;;;9.30;;
61696;SDS011;47610;52.252;20.922;2022-11-04T23:26:43;18.10;;;10.30;;
61696;SDS011;47610;52.252;20.922;2022-11-04T23:32:07;19.50;;;10.10;;
61696;SDS011;47610;52.252;20.922;2022-11-04T23:37:31;16.30;;;10.40;;
61696;SDS011;47610;52.252;20.922;2022-11-04T23:42:55;22.70;;;10.00;;
61696;SDS011;47610;52.252;20.922;2022-11-04T23:48:20;21.50;;;11.60;;
61696;SDS011;47610;52.252;20.922;2022-11-04T23:53:44;23.70;;;11.00;;
61696;SDS011;47610;52.252;20.922;2022-11-04T23:59:10;22.50;;;10.60;;
